Time;durP1;ratioP1;P1;durP2;ratioP2;P2;SDS_P1;SDS_P2;PMS_P1;PMS_P2;Temp;Humidity;BMP_temperature;BMP_pressure;BME280_temperature;BME280_humidity;BME280_pressure;Samples;Min_cycle;Max_cycle;Signal;HPM_P1;HPM_P2
2023/05/11 00:00:03;;;;;;;2.50;2.00;;;;;;;13.66;61.52;101513.28;5031895;28;20026;-85
2023/05/11 00:02:29;;;;;;;2.92;1.85;;;;;;;13.64;61.67;101499.50;5015388;28;20029;-85
2023/05/11 00:04:54;;;;;;;4.55;2.47;;;;;;;13.44;62.28;101479.66;5015432;28;20025;-85
2023/05/11 00:07:20;;;;;;;3.10;2.40;;;;;;;13.58;61.96;101505.88;5031617;28;20059;-85
2023/05/11 00:09:45;;;;;;;3.63;2.72;;;;;;;13.54;61.80;101498.28;5015315;28;20036;-85
2023/05/11 00:12:12;;;;;;;3.20;2.15;;;;;;;13.55;62.57;101505.16;5015032;28;20099;-85
2023/05/11 00:14:37;;;;;;;2.38;1.98;;;;;;;13.53;62.78;101510.44;5015478;28;20083;-85
2023/05/11 00:17:03;;;;;;;2.75;2.00;;;;;;;13.52;62.49;101510.50;5015682;28;20029;-85
2023/05/11 00:19:30;;;;;;;4.65;1.98;;;;;;;13.42;62.86;101510.94;5015506;28;20037;-85
2023/05/11 00:21:57;;;;;;;3.45;2.30;;;;;;;13.22;63.28;101491.97;5031840;28;20112;-84
2023/05/11 00:24:22;;;;;;;3.95;2.50;;;;;;;13.23;63.54;101485.88;5015083;28;20072;-85
2023/05/11 00:26:48;;;;;;;3.75;2.38;;;;;;;13.32;63.30;101493.25;5014765;28;20038;-84
2023/05/11 00:29:13;;;;;;;3.88;1.83;;;;;;;13.32;63.16;101493.25;5031336;28;20025;-85
2023/05/11 00:31:38;;;;;;;2.58;2.13;;;;;;;13.13;63.25;101465.47;5014531;28;20487;-85
2023/05/11 00:34:04;;;;;;;3.65;2.50;;;;;;;13.33;63.27;101505.31;5030901;28;20479;-85
2023/05/11 00:36:29;;;;;;;11.32;2.65;;;;;;;13.36;63.72;101506.00;5031014;28;20478;-85
2023/05/11 00:38:55;;;;;;;3.60;2.13;;;;;;;13.34;64.02;101501.81;5031261;28;20486;-85
2023/05/11 00:41:20;;;;;;;2.92;1.80;;;;;;;13.31;64.21;101491.56;5014634;28;20037;-85
2023/05/11 00:43:46;;;;;;;3.22;2.28;;;;;;;13.31;63.72;101484.59;5014772;28;20025;-85
2023/05/11 00:46:11;;;;;;;6.90;2.85;;;;;;;13.28;64.19;101486.50;5014184;28;20029;-85
2023/05/11 00:48:37;;;;;;;3.20;1.90;;;;;;;13.24;64.11;101495.34;5013584;28;20578;-84
2023/05/11 00:51:03;;;;;;;3.10;2.42;;;;;;;13.24;64.47;101509.19;5030980;28;20199;-85
2023/05/11 00:53:28;;;;;;;3.60;2.20;;;;;;;13.09;64.76;101483.88;5030931;28;20025;-85
2023/05/11 00:55:54;;;;;;;3.90;2.63;;;;;;;13.18;64.65;101506.84;4998223;28;20569;-85
2023/05/11 00:58:19;;;;;;;2.65;2.08;;;;;;;13.29;64.72;101511.59;5014284;28;20022;-85
2023/05/11 01:00:46;;;;;;;7.30;2.30;;;;;;;13.19;64.97;101492.97;5014427;28;20037;-85
2023/05/11 01:03:13;;;;;;;3.15;2.33;;;;;;;13.20;65.16;101505.06;5014551;28;20025;-84
2023/05/11 01:06:17;;;;;;;3.53;2.60;;;;;;;13.15;65.70;101510.41;5014282;28;20037;-85
2023/05/11 01:08:49;;;;;;;2.85;2.22;;;;;;;13.21;65.66;101514.53;5022307;28;20033;-85
2023/05/11 01:11:20;;;;;;;2.30;2.00;;;;;;;13.27;65.35;101508.19;4998273;28;20029;-85
2023/05/11 01:13:50;;;;;;;4.25;2.20;;;;;;;13.19;65.51;101512.00;5030503;28;20049;-85
2023/05/11 01:16:19;;;;;;;3.35;1.95;;;;;;;13.23;65.54;101523.09;5014283;28;20533;-84
2023/05/11 01:19:03;;;;;;;3.35;2.60;;;;;;;13.18;65.76;101522.44;5013941;28;20021;-85
2023/05/11 01:21:30;;;;;;;3.08;2.03;;;;;;;13.15;65.93;101522.56;4997873;28;20075;-85
2023/05/11 01:24:29;;;;;;;3.28;2.50;;;;;;;13.19;66.05;101521.56;5014299;28;20021;-84
2023/05/11 01:27:18;;;;;;;5.15;2.33;;;;;;;13.20;65.83;101521.47;5030367;28;20032;-86
2023/05/11 01:29:57;;;;;;;3.83;2.10;;;;;;;13.08;65.78;101498.63;5029935;28;20040;-85
2023/05/11 01:32:24;;;;;;;2.58;1.92;;;;;;;12.97;65.61;101487.84;4998521;28;20057;-85
2023/05/11 01:34:59;;;;;;;3.53;2.20;;;;;;;12.91;65.95;101473.41;5030311;28;20479;-85
2023/05/11 01:37:24;;;;;;;4.30;2.67;;;;;;;13.10;65.92;101516.75;5014397;28;20032;-85
2023/05/11 01:39:58;;;;;;;8.43;2.17;;;;;;;12.84;65.97;101482.38;5013441;28;20033;-86
2023/05/11 01:42:27;;;;;;;2.35;2.03;;;;;;;12.79;65.91;101466.19;5014158;28;20033;-84
2023/05/11 01:44:53;;;;;;;3.85;2.60;;;;;;;13.03;66.38;101512.72;5029999;28;20454;-85
2023/05/11 01:47:21;;;;;;;2.72;2.17;;;;;;;12.93;66.43;101512.28;5013605;28;20034;-84
2023/05/11 01:49:46;;;;;;;2.67;2.13;;;;;;;12.96;66.84;101521.69;5013562;28;20032;-85
2023/05/11 01:52:12;;;;;;;2.65;1.75;;;;;;;12.87;66.86;101507.34;4997015;28;20029;-84
2023/05/11 01:54:37;;;;;;;3.17;2.28;;;;;;;12.85;67.00;101504.84;4997065;28;20034;-85
2023/05/11 01:57:03;;;;;;;3.30;1.98;;;;;;;12.89;66.63;101516.78;5013490;28;20085;-85
2023/05/11 01:59:28;;;;;;;2.70;1.85;;;;;;;12.90;66.75;101512.44;5012908;28;20037;-85
2023/05/11 02:01:54;;;;;;;2.90;2.28;;;;;;;12.99;66.77;101521.59;5013169;28;20033;-86
2023/05/11 02:04:20;;;;;;;4.70;2.60;;;;;;;12.83;66.97;101505.81;4996989;28;20033;-85
2023/05/11 02:06:46;;;;;;;3.30;2.15;;;;;;;12.90;66.89;101523.66;5013099;28;20087;-84
2023/05/11 02:09:11;;;;;;;3.50;2.35;;;;;;;12.83;66.81;101500.63;5013370;28;20086;-86
2023/05/11 02:11:37;;;;;;;5.78;2.08;;;;;;;12.74;65.84;101496.69;5013048;28;20458;-86
2023/05/11 02:14:02;;;;;;;3.58;2.45;;;;;;;12.76;65.91;101509.59;5013357;28;20450;-87
2023/05/11 02:16:28;;;;;;;7.18;2.50;;;;;;;12.76;66.44;101528.59;4996624;28;20045;-86
2023/05/11 02:18:53;;;;;;;2.92;2.25;;;;;;;12.77;66.02;101514.72;5013319;28;20470;-84
2023/05/11 02:21:19;;;;;;;6.82;2.25;;;;;;;12.72;66.11;101514.09;5013042;28;20083;-86
2023/05/11 02:23:45;;;;;;;4.80;2.78;;;;;;;12.70;66.61;101518.50;4996901;28;20402;-84
2023/05/11 02:26:11;;;;;;;4.93;2.38;;;;;;;12.72;66.55;101531.41;5029281;28;20025;-86
2023/05/11 02:28:36;;;;;;;3.22;2.53;;;;;;;12.69;66.34;101524.63;5013006;28;20076;-85
2023/05/11 02:31:04;;;;;;;3.28;2.63;;;;;;;12.71;65.78;101527.13;5013037;28;20041;-84
2023/05/11 02:33:31;;;;;;;2.80;2.15;;;;;;;12.50;66.15;101487.38;5013230;28;20040;-85
2023/05/11 02:35:57;;;;;;;4.10;2.40;;;;;;;12.67;66.11;101518.63;5029396;28;20030;-84
2023/05/11 02:38:24;;;;;;;5.32;3.08;;;;;;;12.84;66.13;101544.69;5013007;28;20033;-84
2023/05/11 02:40:50;;;;;;;4.72;2.63;;;;;;;12.86;65.70;101539.44;5029419;28;20048;-85
2023/05/11 02:43:20;;;;;;;3.42;1.98;;;;;;;12.83;65.74;101542.19;4996617;28;20471;-84
2023/05/11 02:45:46;;;;;;;3.28;2.15;;;;;;;12.68;65.85;101525.50;5029326;28;20025;-86
2023/05/11 02:48:18;;;;;;;2.38;1.77;;;;;;;12.74;66.00;101535.63;5013167;28;20037;-86
2023/05/11 02:50:44;;;;;;;3.33;2.17;;;;;;;12.81;66.08;101549.19;5013763;28;20514;-85
2023/05/11 02:53:13;;;;;;;6.60;3.38;;;;;;;12.72;66.50;101544.41;5012862;28;20034;-85
2023/05/11 02:55:39;;;;;;;3.60;2.33;;;;;;;12.76;66.15;101545.94;4996861;28;20057;-86
2023/05/11 02:58:05;;;;;;;3.22;2.20;;;;;;;12.71;65.99;101538.38;5012848;28;20068;-85
2023/05/11 03:00:30;;;;;;;4.13;2.53;;;;;;;12.78;66.77;101544.13;5012288;28;20412;-85
2023/05/11 03:02:56;;;;;;;3.50;2.33;;;;;;;12.70;65.69;101521.09;5012772;28;20063;-86
2023/05/11 03:05:23;;;;;;;3.38;2.90;;;;;;;12.78;65.48;101537.19;5013185;28;20037;-85
2023/05/11 03:07:48;;;;;;;4.50;2.83;;;;;;;12.99;65.08;101557.94;4996622;28;20053;-85
2023/05/11 03:10:13;;;;;;;4.18;2.85;;;;;;;12.85;65.09;101541.19;4996953;28;20025;-84
2023/05/11 03:12:39;;;;;;;3.80;2.60;;;;;;;12.80;65.57;101561.34;5016132;28;20057;-84
2023/05/11 03:15:05;;;;;;;8.32;2.88;;;;;;;12.75;65.62;101563.28;5015836;28;20549;-83
2023/05/11 03:17:30;;;;;;;4.68;3.15;;;;;;;12.65;65.94;101572.38;5016035;28;20034;-84
2023/05/11 03:19:57;;;;;;;3.47;2.70;;;;;;;12.67;66.17;101567.94;5016141;28;20033;-84
2023/05/11 03:22:22;;;;;;;2.42;2.00;;;;;;;12.65;66.46;101564.56;5016137;28;20398;-83
2023/05/11 03:24:48;;;;;;;8.82;3.20;;;;;;;12.66;65.61;101561.06;5015680;28;20030;-83
2023/05/11 03:27:13;;;;;;;4.65;2.53;;;;;;;12.69;65.97;101562.72;4999581;28;20034;-84
2023/05/11 03:29:41;;;;;;;2.75;2.08;;;;;;;12.78;65.04;101575.28;5015735;28;20037;-84
2023/05/11 03:32:06;;;;;;;14.43;2.72;;;;;;;12.66;65.45;101561.06;5032190;28;20434;-83
2023/05/11 03:34:31;;;;;;;3.47;2.53;;;;;;;12.64;65.65;101578.47;5015825;28;20025;-83
2023/05/11 03:36:57;;;;;;;4.75;3.33;;;;;;;12.71;65.14;101571.28;5032256;28;20033;-83
2023/05/11 03:39:22;;;;;;;3.40;2.47;;;;;;;12.65;64.81;101569.78;5015818;28;20037;-85
2023/05/11 03:41:48;;;;;;;4.15;2.35;;;;;;;12.70;65.23;101587.78;5015364;28;20045;-86
2023/05/11 03:44:14;;;;;;;2.90;2.20;;;;;;;12.64;65.17;101583.66;4994580;28;20045;-86
2023/05/11 03:46:40;;;;;;;4.78;2.53;;;;;;;12.58;65.22;101576.97;5003448;28;20029;-85
2023/05/11 03:49:05;;;;;;;3.17;2.53;;;;;;;12.71;64.69;101595.50;4995874;28;20034;-85
2023/05/11 03:51:31;;;;;;;5.63;4.32;;;;;;;12.70;64.74;101590.38;4995035;28;20038;-84
2023/05/11 03:53:57;;;;;;;8.80;5.88;;;;;;;12.68;64.49;101587.81;4995678;28;20036;-84
2023/05/11 03:56:23;;;;;;;6.00;4.50;;;;;;;12.66;64.51;101592.22;5005758;28;20029;-85
2023/05/11 03:58:48;;;;;;;4.82;3.45;;;;;;;12.63;64.60;101597.56;5028747;28;20029;-84
2023/05/11 04:01:14;;;;;;;10.32;2.72;;;;;;;12.59;64.93;101591.66;5006375;28;20065;-85
2023/05/11 04:03:49;;;;;;;3.42;2.28;;;;;;;12.64;64.93;101597.50;4979257;28;20037;-85
2023/05/11 04:06:16;;;;;;;5.38;2.80;;;;;;;12.48;64.23;101575.66;4995268;28;20030;-83
2023/05/11 04:08:41;;;;;;;6.32;3.92;;;;;;;12.65;64.37;101600.94;4995568;28;20430;-86
2023/05/11 04:11:07;;;;;;;4.45;3.13;;;;;;;12.61;64.33;101599.38;5013078;28;20112;-88
2023/05/11 04:13:32;;;;;;;4.22;2.80;;;;;;;12.56;64.55;101601.31;5012077;28;20060;-86
2023/05/11 04:15:58;;;;;;;4.47;2.58;;;;;;;12.50;64.79;101580.81;5024338;28;20029;-83
2023/05/11 04:18:23;;;;;;;3.97;2.10;;;;;;;12.53;64.58;101578.94;5020397;28;20033;-83
2023/05/11 04:20:49;;;;;;;6.00;2.33;;;;;;;12.56;64.71;101586.56;5021831;28;20471;-82
2023/05/11 04:23:14;;;;;;;3.40;2.45;;;;;;;12.57;64.80;101598.63;5020403;28;20026;-84
2023/05/11 04:25:40;;;;;;;7.72;3.92;;;;;;;12.33;63.62;101569.38;5021578;28;20029;-84
2023/05/11 04:28:05;;;;;;;4.60;2.58;;;;;;;12.34;64.50;101599.59;5014048;28;20765;-82
2023/05/11 04:30:31;;;;;;;3.45;2.63;;;;;;;12.39;64.75;101606.34;5024629;28;20034;-92
2023/05/11 04:32:56;;;;;;;3.63;2.40;;;;;;;12.34;64.31;101602.19;4999742;28;20057;-91
2023/05/11 04:35:23;;;;;;;3.25;2.47;;;;;;;12.26;63.90;101606.00;5017677;28;20033;-91
2023/05/11 04:37:49;;;;;;;2.55;1.75;;;;;;;12.24;64.33;101607.81;5032215;28;20112;-88
2023/05/11 04:40:17;;;;;;;2.33;1.88;;;;;;;12.35;63.78;101609.06;5015567;28;20030;-92
2023/05/11 04:42:42;;;;;;;3.03;2.08;;;;;;;12.23;63.53;101604.38;5002830;28;20021;-85
2023/05/11 04:45:08;;;;;;;4.68;3.22;;;;;;;12.27;64.01;101611.13;5030919;28;20498;-88
2023/05/11 04:47:34;;;;;;;4.90;4.35;;;;;;;12.15;64.41;101622.00;5029820;28;20420;-83
2023/05/11 04:50:00;;;;;;;2.83;2.28;;;;;;;12.17;64.18;101604.63;5014109;28;20036;-90
2023/05/11 04:52:25;;;;;;;11.80;7.88;;;;;;;12.24;63.69;101624.22;5014462;28;20489;-86
2023/05/11 04:54:51;;;;;;;4.65;2.63;;;;;;;12.29;64.14;101621.44;5019616;28;20057;-85
2023/05/11 04:57:17;;;;;;;4.75;2.22;;;;;;;12.28;64.55;101623.19;5013609;28;20037;-91
2023/05/11 04:59:43;;;;;;;4.03;2.72;;;;;;;12.39;63.92;101629.69;5030831;28;20029;-88
2023/05/11 05:02:08;;;;;;;2.30;1.92;;;;;;;12.41;63.30;101639.13;5010675;28;20030;-88
2023/05/11 05:04:33;;;;;;;6.25;1.95;;;;;;;12.43;63.09;101642.50;5031501;28;20037;-91
2023/05/11 05:06:59;;;;;;;2.72;2.00;;;;;;;12.38;62.81;101643.59;5001423;28;20033;-88
2023/05/11 05:09:25;;;;;;;3.40;2.47;;;;;;;12.19;62.57;101596.78;5030280;28;20025;-84
2023/05/11 05:11:50;;;;;;;3.58;2.25;;;;;;;12.08;62.28;101617.94;5031654;28;20057;-88
2023/05/11 05:14:15;;;;;;;2.65;1.83;;;;;;;12.07;62.69;101614.50;5011896;28;20022;-81
2023/05/11 05:16:41;;;;;;;4.18;2.10;;;;;;;12.18;62.90;101634.00;5019573;28;20029;-90
2023/05/11 05:19:08;;;;;;;2.90;1.98;;;;;;;12.25;62.39;101645.81;5015133;28;20036;-91
2023/05/11 05:21:35;;;;;;;3.03;2.10;;;;;;;12.31;61.51;101653.38;5014880;28;20052;-93
2023/05/11 05:24:03;;;;;;;3.38;3.03;;;;;;;12.31;61.18;101661.16;5018149;28;20038;-84
2023/05/11 05:26:28;;;;;;;2.97;2.45;;;;;;;12.32;61.77;101660.25;5000082;28;20033;-89
2023/05/11 05:28:53;;;;;;;2.55;1.88;;;;;;;12.22;62.29;101654.59;5034015;28;20029;-90
2023/05/11 05:31:19;;;;;;;2.72;2.17;;;;;;;12.30;62.52;101657.72;4995954;28;20021;-87
2023/05/11 05:33:44;;;;;;;4.88;2.13;;;;;;;12.41;61.89;101656.44;5013821;28;20482;-90
2023/05/11 05:36:10;;;;;;;1.88;1.30;;;;;;;12.38;61.74;101664.34;5031810;28;20029;-91
2023/05/11 05:38:35;;;;;;;2.65;1.70;;;;;;;12.45;61.63;101665.78;5014644;28;20037;-92
2023/05/11 05:41:01;;;;;;;2.60;1.73;;;;;;;12.37;61.03;101654.88;5014407;28;20040;-87
2023/05/11 05:43:26;;;;;;;4.35;2.00;;;;;;;12.50;60.67;101658.69;5016669;28;20087;-89
2023/05/11 05:45:52;;;;;;;3.78;2.85;;;;;;;12.53;61.32;101666.34;5013248;28;20519;-85
2023/05/11 05:48:17;;;;;;;6.95;2.65;;;;;;;12.51;60.96;101653.44;5031646;28;20033;-90
2023/05/11 05:50:43;;;;;;;2.95;1.80;;;;;;;12.41;60.13;101648.66;5043767;28;20030;-83
2023/05/11 05:53:08;;;;;;;3.38;1.95;;;;;;;12.63;59.91;101680.63;5008895;28;20084;-84
2023/05/11 05:55:34;;;;;;;4.00;2.92;;;;;;;12.54;60.39;101671.47;5019781;28;20437;-81
2023/05/11 05:57:59;;;;;;;4.53;2.40;;;;;;;12.72;61.30;101688.03;5038885;28;20040;-93
2023/05/11 06:00:25;;;;;;;3.50;2.65;;;;;;;12.73;61.50;101681.94;4994635;28;20030;-88
2023/05/11 06:02:50;;;;;;;3.67;2.67;;;;;;;12.70;60.81;101676.03;5014170;28;20487;-87
2023/05/11 06:05:15;;;;;;;5.05;2.35;;;;;;;12.56;61.05;101648.88;5028717;28;20511;-90
2023/05/11 06:07:41;;;;;;;3.60;1.88;;;;;;;12.79;60.50;101686.91;5028228;28;20099;-87
2023/05/11 06:10:06;;;;;;;1.80;1.40;;;;;;;12.53;60.94;101649.00;5028757;28;20041;-86
2023/05/11 06:12:32;;;;;;;4.30;2.88;;;;;;;12.72;61.08;101689.78;5031060;28;20065;-93
2023/05/11 06:14:58;;;;;;;4.90;2.03;;;;;;;12.84;60.80;101689.28;5010542;28;20564;-89
2023/05/11 06:17:23;;;;;;;4.57;2.72;;;;;;;12.52;60.60;101652.50;5014226;28;20052;-92
2023/05/11 06:19:49;;;;;;;2.63;2.00;;;;;;;12.66;60.19;101677.91;5041938;28;20025;-92
2023/05/11 06:22:14;;;;;;;3.78;2.20;;;;;;;12.68;59.59;101683.03;5012649;28;20079;-89
2023/05/11 06:24:40;;;;;;;3.25;2.30;;;;;;;12.57;60.26;101688.66;5002935;28;20075;-87
2023/05/11 06:27:08;;;;;;;4.03;1.95;;;;;;;12.69;60.09;101695.13;5021707;28;20403;-94
2023/05/11 06:29:34;;;;;;;5.80;2.05;;;;;;;12.62;59.83;101684.97;5009463;28;20064;-85
2023/05/11 06:32:00;;;;;;;3.90;2.28;;;;;;;12.60;59.87;101671.22;5014938;28;20491;-94
2023/05/11 06:34:25;;;;;;;3.08;2.30;;;;;;;12.67;59.82;101695.16;5007530;28;20025;-93
2023/05/11 06:36:50;;;;;;;3.00;1.98;;;;;;;12.65;59.93;101689.19;5032745;28;20080;-94
2023/05/11 06:39:16;;;;;;;7.00;2.47;;;;;;;12.67;60.07;101707.28;5037884;28;20025;-94
2023/05/11 06:41:41;;;;;;;2.90;1.73;;;;;;;12.62;59.94;101694.53;5029674;28;20031;-85
2023/05/11 06:44:07;;;;;;;3.22;2.28;;;;;;;12.65;59.72;101699.56;4995530;28;20549;-87
2023/05/11 06:46:32;;;;;;;3.22;2.15;;;;;;;12.69;59.97;101705.50;5037508;28;20035;-92
2023/05/11 06:48:58;;;;;;;3.30;2.38;;;;;;;12.67;59.69;101702.09;5025112;28;20061;-88
2023/05/11 06:51:23;;;;;;;2.53;2.00;;;;;;;12.67;59.79;101713.34;5033065;28;20419;-94
2023/05/11 06:53:49;;;;;;;3.67;2.50;;;;;;;12.70;59.11;101702.84;5014913;28;20030;-95
2023/05/11 06:56:15;;;;;;;4.00;2.80;;;;;;;12.79;58.74;101702.47;5047029;28;20148;-93
2023/05/11 06:58:40;;;;;;;3.53;2.30;;;;;;;12.75;58.93;101680.13;5032557;28;20036;-89
2023/05/11 07:01:06;;;;;;;6.97;2.08;;;;;;;12.97;58.87;101702.59;5021354;28;20026;-90
2023/05/11 07:03:34;;;;;;;5.65;2.90;;;;;;;13.07;58.72;101696.09;5025783;28;20034;-87
2023/05/11 07:06:00;;;;;;;2.58;1.85;;;;;;;13.16;58.83;101698.31;5032715;28;20061;-92
2023/05/11 07:08:25;;;;;;;3.22;2.20;;;;;;;13.14;57.96;101697.53;5018150;28;20030;-93
2023/05/11 07:10:51;;;;;;;3.85;2.33;;;;;;;13.10;57.59;101690.81;5049508;28;20036;-84
2023/05/11 07:13:16;;;;;;;10.80;6.85;;;;;;;13.20;57.40;101694.72;5042725;28;20491;-88
2023/05/11 07:15:42;;;;;;;8.70;5.53;;;;;;;13.06;57.47;101674.47;5045662;28;20025;-86
2023/05/11 07:18:07;;;;;;;3.67;2.60;;;;;;;13.34;56.70;101697.56;5032435;28;20453;-90
2023/05/11 07:20:35;;;;;;;2.80;1.90;;;;;;;13.04;56.33;101652.09;5030152;28;20029;-85
2023/05/11 07:23:00;;;;;;;4.10;2.72;;;;;;;13.33;55.64;101703.69;5033327;28;20026;-94
2023/05/11 07:25:26;;;;;;;4.20;2.15;;;;;;;13.45;55.64;101697.09;5000922;28;20049;-91
2023/05/11 07:27:52;;;;;;;4.32;2.38;;;;;;;13.61;55.38;101707.66;5047512;28;20025;-90
2023/05/11 07:30:18;;;;;;;2.63;1.75;;;;;;;13.50;54.78;101671.75;5049609;28;20109;-93
2023/05/11 07:32:43;;;;;;;3.80;2.28;;;;;;;13.71;54.51;101711.56;5035165;28;20064;-87
2023/05/11 07:35:09;;;;;;;2.67;1.80;;;;;;;13.79;54.43;101709.47;5033158;28;20038;-94
2023/05/11 07:37:34;;;;;;;4.05;2.83;;;;;;;13.83;54.42;101712.75;5017486;28;20037;-88
2023/05/11 07:40:00;;;;;;;3.97;2.28;;;;;;;13.79;52.98;101706.84;5033095;28;20040;-88
2023/05/11 07:42:25;;;;;;;3.17;2.60;;;;;;;13.80;54.01;101698.13;5048978;28;20061;-87
2023/05/11 07:44:51;;;;;;;2.20;1.73;;;;;;;13.89;53.62;101710.72;5030595;28;20494;-86
2023/05/11 07:47:19;;;;;;;3.25;1.88;;;;;;;13.80;53.26;101698.13;5021691;28;20037;-92
2023/05/11 07:49:46;;;;;;;3.42;2.22;;;;;;;13.85;53.10;101701.34;5041063;28;20533;-87
2023/05/11 07:52:12;;;;;;;3.08;2.00;;;;;;;13.92;53.14;101718.38;5048113;28;20028;-91
2023/05/11 07:54:38;;;;;;;3.08;2.30;;;;;;;13.96;53.50;101713.88;5009800;28;20038;-88
2023/05/11 07:57:04;;;;;;;2.50;1.80;;;;;;;14.09;53.65;101725.44;5028978;28;20041;-89
2023/05/11 07:59:30;;;;;;;5.35;2.60;;;;;;;14.18;53.83;101726.75;5029947;28;20083;-84
2023/05/11 08:01:55;;;;;;;7.75;2.80;;;;;;;14.22;54.09;101716.13;5031166;28;20026;-87
2023/05/11 08:04:21;;;;;;;3.40;2.17;;;;;;;14.22;54.32;101692.69;5028628;28;20029;-88
2023/05/11 08:06:46;;;;;;;5.03;2.88;;;;;;;14.48;53.90;101707.13;5021663;28;20387;-93
2023/05/11 08:09:11;;;;;;;3.58;2.70;;;;;;;14.59;51.29;101701.38;5030439;28;20096;-89
2023/05/11 08:11:37;;;;;;;2.80;1.90;;;;;;;14.77;51.42;101715.28;5031810;28;20033;-87
2023/05/11 08:14:02;;;;;;;3.95;2.40;;;;;;;14.75;51.35;101698.84;5017560;28;20033;-90
2023/05/11 08:16:28;;;;;;;2.15;1.60;;;;;;;14.90;50.98;101714.59;5046641;28;20033;-87
2023/05/11 08:18:53;;;;;;;4.72;2.38;;;;;;;15.02;51.53;101712.28;5010211;28;20030;-85
2023/05/11 08:21:19;;;;;;;2.17;1.67;;;;;;;15.10;51.21;101716.19;5021423;28;20029;-86
2023/05/11 08:23:44;;;;;;;3.45;2.40;;;;;;;15.16;50.32;101691.59;5005177;28;20037;-92
2023/05/11 08:26:10;;;;;;;10.48;2.33;;;;;;;15.20;49.09;101688.75;5032399;28;20507;-89
2023/05/11 08:28:35;;;;;;;5.65;2.88;;;;;;;15.23;49.31;101690.34;5034864;28;20033;-89
2023/05/11 08:31:00;;;;;;;3.78;2.13;;;;;;;15.40;48.75;101705.97;5044093;28;20509;-92
2023/05/11 08:33:26;;;;;;;3.88;2.40;;;;;;;15.36;48.56;101685.34;5030946;28;20033;-84
2023/05/11 08:35:51;;;;;;;6.90;2.20;;;;;;;15.51;48.92;101694.97;5030283;28;20034;-86
2023/05/11 08:38:18;;;;;;;3.47;2.58;;;;;;;15.66;48.49;101706.41;5030549;28;20091;-85
2023/05/11 08:40:46;;;;;;;3.67;2.70;;;;;;;15.73;48.49;101700.78;5009740;28;20084;-82
2023/05/11 08:43:15;;;;;;;5.93;3.30;;;;;;;15.77;49.38;101676.22;5004714;28;20029;-93
2023/05/11 08:45:43;;;;;;;3.50;2.35;;;;;;;15.89;48.55;101690.34;5022950;28;20033;-90
2023/05/11 08:48:09;;;;;;;3.30;1.95;;;;;;;15.96;47.88;101683.88;5017865;28;20072;-85
2023/05/11 08:50:34;;;;;;;3.55;2.58;;;;;;;16.12;47.60;101701.28;5024701;28;20033;-84
2023/05/11 08:53:00;;;;;;;4.43;2.67;;;;;;;16.15;47.99;101686.31;5015604;28;20742;-86
2023/05/11 08:55:26;;;;;;;2.35;2.10;;;;;;;16.28;47.23;101686.47;5030234;28;20048;-95
2023/05/11 08:57:52;;;;;;;4.53;2.20;;;;;;;16.29;46.88;101683.78;5012085;28;20495;-84
2023/05/11 09:00:18;;;;;;;3.70;1.88;;;;;;;16.28;47.42;101679.47;5028684;28;20044;-85
2023/05/11 09:02:43;;;;;;;6.20;2.58;;;;;;;16.35;46.53;101678.22;5028980;28;20120;-88
2023/05/11 09:05:09;;;;;;;2.85;1.85;;;;;;;16.50;46.15;101686.94;5013415;28;20037;-94
2023/05/11 09:07:35;;;;;;;3.90;2.50;;;;;;;16.50;46.57;101671.25;5012804;28;20029;-91
2023/05/11 09:10:00;;;;;;;18.10;2.45;;;;;;;16.67;46.85;101680.75;5023325;28;20080;-94
2023/05/11 09:12:27;;;;;;;3.50;1.92;;;;;;;16.67;45.45;101672.06;5031827;28;20045;-85
2023/05/11 09:14:52;;;;;;;3.20;1.90;;;;;;;16.79;44.97;101680.06;5048602;28;20028;-93
2023/05/11 09:17:18;;;;;;;2.97;2.30;;;;;;;16.54;44.46;101635.38;5009224;28;20057;-87
2023/05/11 09:19:58;;;;;;;4.03;1.90;;;;;;;16.75;44.05;101647.22;5023387;28;20017;-86
2023/05/11 09:22:23;;;;;;;4.75;2.22;;;;;;;16.96;43.52;101667.78;5027975;28;20021;-89
2023/05/11 09:24:49;;;;;;;4.00;2.42;;;;;;;17.02;43.93;101667.44;5027621;28;20116;-94
2023/05/11 09:27:14;;;;;;;2.45;1.90;;;;;;;16.79;42.09;101640.03;5028558;28;20034;-88
2023/05/11 09:29:40;;;;;;;2.42;1.70;;;;;;;16.86;42.49;101643.97;5030109;28;20479;-85
2023/05/11 09:32:05;;;;;;;6.40;1.85;;;;;;;17.06;43.23;101666.31;5027908;28;20029;-82
2023/05/11 09:34:31;;;;;;;7.13;2.53;;;;;;;17.17;42.99;101669.13;5044972;28;20457;-90
2023/05/11 09:36:56;;;;;;;3.60;2.13;;;;;;;17.21;43.30;101652.34;5013326;28;20036;-88
2023/05/11 09:39:33;;;;;;;5.32;2.00;;;;;;;17.20;42.45;101651.47;5014449;28;20029;-89
2023/05/11 09:42:15;;;;;;;2.75;2.08;;;;;;;17.36;42.57;101661.00;5015744;28;20124;-89
2023/05/11 09:44:42;;;;;;;2.78;2.08;;;;;;;17.30;41.42;101643.91;5016660;28;20072;-89
2023/05/11 09:47:15;;;;;;;2.83;2.03;;;;;;;17.30;41.70;101650.91;5010210;28;20112;-85
2023/05/11 09:49:42;;;;;;;3.83;1.95;;;;;;;17.30;42.35;101635.22;4993310;28;20049;-86
2023/05/11 09:52:11;;;;;;;7.93;1.80;;;;;;;17.38;42.52;101628.59;5031715;28;20502;-86
2023/05/11 09:54:55;;;;;;;2.15;1.80;;;;;;;17.40;42.22;101621.50;5041050;28;20064;-93
2023/05/11 09:57:24;;;;;;;2.85;1.80;;;;;;;17.52;41.03;101629.53;5050094;28;20035;-86
2023/05/11 09:59:50;;;;;;;2.45;1.70;;;;;;;17.51;41.17;101627.84;5032118;28;20045;-86
2023/05/11 10:02:22;;;;;;;2.70;1.58;;;;;;;17.37;41.61;101608.59;5027811;28;20053;-88
2023/05/11 10:04:51;;;;;;;4.90;2.60;;;;;;;17.57;41.10;101632.69;5035687;28;20021;-83
2023/05/11 10:07:24;;;;;;;3.75;2.17;;;;;;;17.66;41.24;101632.13;5047362;28;20044;-87
2023/05/11 10:09:52;;;;;;;3.33;2.05;;;;;;;17.79;40.29;101635.66;5020421;28;20038;-93
2023/05/11 10:12:17;;;;;;;3.20;1.73;;;;;;;17.88;40.18;101631.63;5029931;28;20098;-88
2023/05/11 10:14:43;;;;;;;3.28;1.98;;;;;;;17.95;41.38;101628.53;5015239;28;20033;-90
2023/05/11 10:17:09;;;;;;;3.08;1.88;;;;;;;18.02;41.39;101627.22;5031601;28;20033;-95
2023/05/11 10:19:34;;;;;;;7.97;4.10;;;;;;;18.04;41.55;101630.56;5038759;28;20698;-92
2023/05/11 10:22:00;;;;;;;3.13;2.20;;;;;;;18.06;40.89;101605.13;5054224;28;20029;-83
2023/05/11 10:24:26;;;;;;;3.75;1.98;;;;;;;18.21;40.99;101624.25;5034358;28;20030;-92
2023/05/11 10:26:51;;;;;;;3.22;1.80;;;;;;;18.10;40.92;101602.31;5016586;28;20037;-90
2023/05/11 10:29:18;;;;;;;5.07;2.10;;;;;;;18.21;38.46;101613.75;5024699;28;20029;-93
2023/05/11 10:31:44;;;;;;;1.83;1.33;;;;;;;18.17;39.22;101607.03;5032086;28;20040;-89
2023/05/11 10:34:09;;;;;;;4.55;2.00;;;;;;;18.20;38.80;101595.53;5033276;28;20022;-87
2023/05/11 10:36:35;;;;;;;4.65;2.20;;;;;;;18.28;38.62;101598.47;5036822;28;20491;-91
2023/05/11 10:39:00;;;;;;;2.60;1.70;;;;;;;18.41;38.18;101607.22;5034421;28;20410;-88
2023/05/11 10:41:59;;;;;;;3.80;1.70;;;;;;;18.36;38.14;101604.03;5014630;28;20037;-86
2023/05/11 10:44:45;;;;;;;2.15;1.42;;;;;;;18.42;37.96;101603.66;5034112;28;20018;-87
2023/05/11 10:47:37;;;;;;;1.88;1.42;;;;;;;18.46;37.17;101607.72;5033768;28;20056;-95
2023/05/11 10:50:24;;;;;;;3.92;1.65;;;;;;;18.51;38.85;101603.03;5005208;28;20065;-92
2023/05/11 10:53:13;;;;;;;4.32;2.13;;;;;;;18.60;38.53;101599.81;5037963;28;20025;-93
2023/05/11 10:56:12;;;;;;;2.10;1.60;;;;;;;18.37;37.71;101574.28;5037792;28;20071;-90
2023/05/11 10:58:58;;;;;;;1.90;1.33;;;;;;;18.44;37.38;101585.22;5032577;28;20017;-82
2023/05/11 11:01:39;;;;;;;2.90;1.63;;;;;;;18.31;38.66;101565.06;5034149;28;20438;-90
2023/05/11 11:04:09;;;;;;;3.17;1.73;;;;;;;18.49;38.67;101583.97;5037138;28;20402;-92
2023/05/11 11:06:41;;;;;;;5.47;2.40;;;;;;;18.50;39.15;101569.94;5034552;28;20025;-88
2023/05/11 11:09:12;;;;;;;2.22;1.42;;;;;;;18.55;38.39;101573.06;5034861;28;20040;-89
2023/05/11 11:11:49;;;;;;;2.90;1.67;;;;;;;18.60;37.46;101573.59;5017050;28;20021;-86
2023/05/11 11:14:15;;;;;;;3.72;1.48;;;;;;;18.62;36.69;101569.09;5037359;28;20026;-91
2023/05/11 11:17:01;;;;;;;3.83;1.85;;;;;;;18.46;36.65;101560.56;5041167;28;20026;-92
2023/05/11 11:19:29;;;;;;;1.92;1.38;;;;;;;18.59;35.95;101576.34;5040310;28;20044;-88
2023/05/11 11:22:01;;;;;;;2.03;1.40;;;;;;;18.57;36.36;101575.56;5036037;28;20048;-92
2023/05/11 11:24:35;;;;;;;8.23;2.00;;;;;;;18.54;36.85;101576.63;5020327;28;20048;-90